Time;durP1;ratioP1;P1;durP2;ratioP2;P2;SDS_P1;SDS_P2;PMS_P1;PMS_P2;Temp;Humidity;BMP_temperature;BMP_pressure;BME280_temperature;BME280_humidity;BME280_pressure;Samples;Min_cycle;Max_cycle;Signal;HPM_P1;HPM_P2
2024/01/31 00:01:17;;;;;;;53.33;44.03;;;8.60;99.90;;;;;;5051286;28;20449;-65
2024/01/31 00:03:44;;;;;;;53.17;44.25;;;8.60;99.90;;;;;;5052676;28;20025;-65
2024/01/31 00:06:14;;;;;;;51.70;43.83;;;8.60;99.90;;;;;;5052341;28;20067;-65
2024/01/31 00:08:39;;;;;;;50.90;41.22;;;8.60;99.90;;;;;;5052246;28;20475;-65
2024/01/31 00:11:07;;;;;;;44.85;39.58;;;8.50;99.90;;;;;;5071818;28;20128;-65
2024/01/31 00:13:33;;;;;;;45.58;39.58;;;8.50;99.90;;;;;;5071846;28;20028;-65
2024/01/31 00:15:59;;;;;;;45.38;38.10;;;8.50;99.90;;;;;;5072207;28;20103;-66
2024/01/31 00:18:25;;;;;;;43.38;37.25;;;8.50;99.90;;;;;;5072593;28;20094;-63
2024/01/31 00:20:50;;;;;;;46.00;37.40;;;8.60;99.90;;;;;;5054656;28;20487;-65
2024/01/31 00:23:18;;;;;;;43.33;38.35;;;8.60;99.90;;;;;;5051980;28;20017;-65
2024/01/31 00:25:44;;;;;;;42.53;38.03;;;8.50;99.90;;;;;;5050581;28;20029;-65
2024/01/31 00:28:10;;;;;;;44.47;39.63;;;8.50;99.90;;;;;;5052253;28;20455;-65
2024/01/31 00:30:36;;;;;;;43.22;37.72;;;8.50;99.90;;;;;;5067032;28;20047;-65
2024/01/31 00:33:02;;;;;;;40.97;34.90;;;8.50;99.90;;;;;;5071910;28;20021;-65
2024/01/31 00:35:27;;;;;;;40.60;34.03;;;8.40;99.90;;;;;;5072172;28;20074;-65
2024/01/31 00:37:53;;;;;;;35.88;31.55;;;8.30;99.90;;;;;;5071773;28;20028;-66
2024/01/31 00:40:19;;;;;;;36.90;31.20;;;8.30;99.90;;;;;;5072075;28;20043;-65
2024/01/31 00:42:45;;;;;;;35.30;29.23;;;8.30;99.90;;;;;;5091725;28;20043;-65
2024/01/31 00:45:13;;;;;;;33.40;28.65;;;8.30;99.90;;;;;;5062880;28;20506;-65
2024/01/31 00:47:43;;;;;;;31.40;27.98;;;8.30;99.90;;;;;;5072158;28;20037;-65
2024/01/31 00:50:14;;;;;;;29.55;26.35;;;8.30;99.90;;;;;;5071549;28;20514;-65
2024/01/31 00:52:41;;;;;;;30.42;26.23;;;8.30;99.90;;;;;;5071619;28;20031;-65
2024/01/31 00:55:07;;;;;;;30.67;25.45;;;8.20;99.90;;;;;;5071496;28;20028;-65
2024/01/31 00:57:33;;;;;;;30.15;25.65;;;8.20;99.90;;;;;;5068676;28;20043;-65
2024/01/31 01:00:00;;;;;;;29.27;24.73;;;8.10;99.90;;;;;;5062024;28;20083;-65
2024/01/31 01:02:26;;;;;;;28.50;24.15;;;8.10;99.90;;;;;;5053096;28;20029;-65
2024/01/31 01:04:52;;;;;;;24.63;21.88;;;8.20;99.90;;;;;;5055684;28;20025;-65
2024/01/31 01:07:18;;;;;;;27.92;22.85;;;8.30;99.90;;;;;;5055952;28;20025;-65
2024/01/31 01:09:43;;;;;;;27.45;23.48;;;8.50;99.90;;;;;;5062544;28;20567;-65
2024/01/31 01:12:09;;;;;;;29.55;24.15;;;8.60;99.90;;;;;;5075635;28;20032;-65
2024/01/31 01:14:35;;;;;;;32.17;23.20;;;8.70;99.90;;;;;;5075541;28;20021;-65
2024/01/31 01:17:00;;;;;;;31.58;21.75;;;8.70;99.90;;;;;;5075416;28;20032;-64
2024/01/31 01:19:26;;;;;;;29.90;22.65;;;8.80;99.90;;;;;;5057563;28;20097;-65
2024/01/31 01:21:52;;;;;;;28.00;21.77;;;8.90;99.90;;;;;;5075880;28;20036;-65
2024/01/31 01:24:18;;;;;;;29.75;21.92;;;8.70;99.90;;;;;;5075051;28;20025;-65
2024/01/31 01:26:43;;;;;;;25.13;21.65;;;8.60;99.90;;;;;;5075190;28;20479;-65
2024/01/31 01:29:09;;;;;;;25.42;21.65;;;8.40;99.90;;;;;;5075038;28;20024;-65
2024/01/31 01:31:35;;;;;;;24.15;21.58;;;8.30;99.90;;;;;;5075173;28;20051;-65
2024/01/31 01:34:00;;;;;;;25.40;22.50;;;8.20;99.90;;;;;;5075208;28;20086;-65
2024/01/31 01:36:26;;;;;;;26.05;22.20;;;8.20;99.90;;;;;;5075216;28;20108;-65
2024/01/31 01:38:52;;;;;;;27.58;22.55;;;8.10;99.90;;;;;;5074168;28;20453;-65
2024/01/31 01:41:17;;;;;;;24.27;21.45;;;8.10;99.90;;;;;;5075300;28;20066;-65
2024/01/31 01:43:43;;;;;;;26.45;21.98;;;8.00;99.90;;;;;;5075151;28;20052;-65
2024/01/31 01:46:12;;;;;;;22.55;20.15;;;8.00;99.90;;;;;;5074857;28;20025;-65
2024/01/31 01:48:38;;;;;;;20.58;18.42;;;8.00;99.90;;;;;;5074765;28;20029;-64
2024/01/31 01:51:05;;;;;;;22.38;19.00;;;8.00;99.90;;;;;;5074514;28;20043;-65
2024/01/31 01:53:35;;;;;;;23.60;18.38;;;8.00;99.90;;;;;;5074895;28;20401;-65
2024/01/31 01:56:04;;;;;;;24.27;18.13;;;8.00;99.90;;;;;;5074660;28;20031;-65
2024/01/31 01:58:31;;;;;;;24.55;17.63;;;8.00;99.90;;;;;;5074768;28;20017;-65
2024/01/31 02:01:00;;;;;;;24.77;18.08;;;8.00;99.90;;;;;;5058391;28;20127;-65
2024/01/31 02:03:30;;;;;;;22.58;18.15;;;8.00;99.90;;;;;;5054577;28;20407;-65
2024/01/31 02:06:03;;;;;;;20.50;17.55;;;7.90;99.90;;;;;;5054516;28;20103;-65
2024/01/31 02:08:29;;;;;;;20.38;18.17;;;7.90;99.90;;;;;;5054282;28;20028;-66
2024/01/31 02:10:56;;;;;;;22.48;18.65;;;7.90;99.90;;;;;;5070710;28;20132;-65
2024/01/31 02:13:22;;;;;;;20.55;18.35;;;7.90;99.90;;;;;;5074347;28;20066;-65
2024/01/31 02:15:55;;;;;;;21.58;17.35;;;7.90;99.90;;;;;;5073973;28;20107;-65
2024/01/31 02:18:28;;;;;;;20.40;18.02;;;7.90;99.90;;;;;;5074418;28;20025;-65
2024/01/31 02:20:54;;;;;;;21.58;17.20;;;7.90;99.90;;;;;;5058604;28;20024;-65
2024/01/31 02:23:20;;;;;;;19.95;17.85;;;7.90;99.90;;;;;;5053954;28;20036;-65
2024/01/31 02:25:46;;;;;;;19.83;17.73;;;7.90;99.90;;;;;;5054374;28;20503;-65
2024/01/31 02:28:12;;;;;;;20.77;18.17;;;7.90;99.90;;;;;;5053984;28;20024;-65
2024/01/31 02:30:38;;;;;;;22.85;17.10;;;7.80;99.90;;;;;;5067496;28;20480;-65
2024/01/31 02:33:03;;;;;;;20.00;17.48;;;7.80;99.90;;;;;;5074192;28;20533;-65
2024/01/31 02:35:33;;;;;;;19.77;17.08;;;7.70;99.90;;;;;;5073772;28;20043;-65
2024/01/31 02:38:02;;;;;;;23.50;16.45;;;7.70;99.90;;;;;;5073667;28;20029;-65
2024/01/31 02:40:30;;;;;;;21.38;16.13;;;7.70;99.90;;;;;;5073731;28;20084;-65
2024/01/31 02:42:57;;;;;;;21.17;15.55;;;7.80;99.90;;;;;;5073899;28;20063;-65
2024/01/31 02:45:23;;;;;;;17.85;15.30;;;7.70;99.90;;;;;;5073717;28;20025;-65
2024/01/31 02:47:49;;;;;;;19.88;14.90;;;7.70;99.90;;;;;;5090257;28;20035;-65
2024/01/31 02:50:15;;;;;;;21.00;14.82;;;7.70;99.90;;;;;;5063367;28;20525;-65
2024/01/31 02:52:41;;;;;;;18.50;14.52;;;7.70;99.90;;;;;;5073408;28;20036;-65
2024/01/31 02:55:07;;;;;;;17.75;13.90;;;7.70;99.90;;;;;;5073694;28;20025;-64
2024/01/31 02:57:34;;;;;;;18.60;13.85;;;7.80;99.90;;;;;;5073770;28;20033;-65
2024/01/31 03:00:00;;;;;;;15.15;12.48;;;8.00;99.90;;;;;;5065614;28;20032;-65
2024/01/31 03:02:26;;;;;;;18.15;12.77;;;8.20;99.90;;;;;;5053746;28;20029;-65
2024/01/31 03:04:51;;;;;;;14.27;11.93;;;8.30;99.90;;;;;;5053402;28;20573;-65
2024/01/31 03:07:17;;;;;;;12.60;10.88;;;8.30;99.90;;;;;;5052970;28;20032;-64
2024/01/31 03:09:43;;;;;;;12.50;11.00;;;8.50;99.90;;;;;;5059147;28;20107;-65
2024/01/31 03:12:09;;;;;;;14.45;11.02;;;8.50;99.90;;;;;;5073251;28;20613;-65
2024/01/31 03:14:35;;;;;;;13.82;11.20;;;8.40;99.90;;;;;;5073164;28;20025;-65
2024/01/31 03:17:02;;;;;;;12.70;11.20;;;8.20;99.90;;;;;;5073428;28;20028;-65
2024/01/31 03:19:29;;;;;;;15.70;11.10;;;8.10;99.90;;;;;;5070011;28;20017;-64
2024/01/31 03:21:55;;;;;;;12.23;10.80;;;8.00;99.90;;;;;;5053207;28;20036;-65
2024/01/31 03:24:21;;;;;;;14.00;11.20;;;7.90;99.90;;;;;;5053178;28;20029;-65
2024/01/31 03:26:47;;;;;;;13.60;11.93;;;7.80;99.90;;;;;;5053057;28;20021;-64
2024/01/31 03:29:13;;;;;;;16.75;13.75;;;7.70;99.90;;;;;;5054118;28;20035;-65
2024/01/31 03:31:39;;;;;;;15.73;13.00;;;7.70;99.90;;;;;;5072924;28;20417;-65
2024/01/31 03:34:05;;;;;;;17.02;12.63;;;7.70;99.90;;;;;;5072859;28;20028;-65
2024/01/31 03:36:31;;;;;;;15.35;11.90;;;7.70;99.90;;;;;;5072834;28;20094;-65
2024/01/31 03:38:58;;;;;;;14.18;11.43;;;7.70;99.90;;;;;;5072261;28;20098;-65
2024/01/31 03:41:27;;;;;;;14.00;11.50;;;7.70;99.90;;;;;;5073029;28;20025;-64
2024/01/31 03:43:54;;;;;;;13.43;11.45;;;7.70;99.90;;;;;;5072589;28;20028;-65
2024/01/31 03:46:20;;;;;;;14.65;11.27;;;7.70;99.90;;;;;;5072556;28;20048;-65
2024/01/31 03:48:46;;;;;;;12.70;11.40;;;7.70;99.90;;;;;;5072228;28;20032;-65
2024/01/31 03:51:22;;;;;;;13.98;12.18;;;7.70;99.90;;;;;;5072494;28;20475;-65
2024/01/31 03:53:48;;;;;;;14.68;12.18;;;7.80;99.90;;;;;;5072930;28;20036;-65
2024/01/31 03:56:15;;;;;;;15.25;11.35;;;7.70;99.90;;;;;;5072428;28;20021;-64
2024/01/31 03:58:42;;;;;;;13.50;10.73;;;7.70;99.90;;;;;;5072348;28;20491;-65
2024/01/31 04:01:08;;;;;;;12.52;10.48;;;7.70;99.90;;;;;;5054322;28;20423;-65
2024/01/31 04:03:36;;;;;;;12.30;10.48;;;7.70;99.90;;;;;;5072277;28;20021;-65
2024/01/31 04:06:01;;;;;;;14.70;10.40;;;7.70;99.90;;;;;;5072364;28;20032;-65
2024/01/31 04:08:27;;;;;;;13.65;10.60;;;7.70;99.90;;;;;;5072243;28;20039;-65
2024/01/31 04:10:52;;;;;;;11.80;9.25;;;7.60;99.90;;;;;;5072089;28;20036;-65
2024/01/31 04:13:18;;;;;;;13.90;9.93;;;7.60;99.90;;;;;;5072266;28;20017;-65
2024/01/31 04:15:45;;;;;;;11.07;9.60;;;7.60;99.90;;;;;;5072194;28;20028;-65
2024/01/31 04:18:10;;;;;;;10.85;9.75;;;7.60;99.90;;;;;;5071640;28;20525;-65
2024/01/31 04:20:38;;;;;;;11.52;9.90;;;7.60;99.90;;;;;;5060731;28;20021;-65
2024/01/31 04:23:04;;;;;;;13.52;9.70;;;7.50;99.90;;;;;;5052177;28;20099;-65
2024/01/31 04:25:30;;;;;;;10.93;9.80;;;7.60;99.90;;;;;;5052139;28;20024;-65
2024/01/31 04:27:55;;;;;;;13.05;10.65;;;7.50;99.90;;;;;;5051953;28;20032;-65
2024/01/31 04:30:21;;;;;;;16.48;11.70;;;7.50;99.90;;;;;;5061170;28;20459;-65
2024/01/31 04:32:47;;;;;;;17.08;10.98;;;7.40;99.90;;;;;;5072050;28;20028;-65
2024/01/31 04:35:12;;;;;;;14.45;10.75;;;7.40;99.90;;;;;;5071745;28;20123;-65
2024/01/31 04:37:38;;;;;;;13.45;10.68;;;7.40;99.90;;;;;;5071593;28;20060;-65
2024/01/31 04:40:04;;;;;;;13.30;10.05;;;7.40;99.90;;;;;;5073808;28;20047;-64
2024/01/31 04:42:31;;;;;;;10.55;9.45;;;7.40;99.90;;;;;;5071866;28;20499;-65
2024/01/31 04:44:57;;;;;;;11.70;9.70;;;7.30;99.90;;;;;;5059106;28;20024;-65
2024/01/31 04:47:25;;;;;;;9.98;8.60;;;7.30;99.90;;;;;;5051455;28;20032;-65
2024/01/31 04:49:51;;;;;;;15.32;9.10;;;7.30;99.90;;;;;;5056586;28;20027;-65
2024/01/31 04:52:17;;;;;;;12.75;8.85;;;7.30;99.90;;;;;;5072029;28;20086;-65
2024/01/31 04:54:43;;;;;;;15.88;9.15;;;7.50;99.90;;;;;;5071646;28;20028;-64
2024/01/31 04:57:08;;;;;;;11.30;8.65;;;7.70;99.90;;;;;;5072267;28;20510;-64
2024/01/31 04:59:38;;;;;;;10.82;8.45;;;7.70;99.90;;;;;;5069195;28;20020;-65
2024/01/31 05:02:04;;;;;;;12.35;8.70;;;7.80;99.90;;;;;;5070472;28;20098;-65
2024/01/31 05:04:30;;;;;;;10.77;8.30;;;7.80;99.90;;;;;;5071587;28;20027;-64
2024/01/31 05:06:56;;;;;;;9.85;8.05;;;7.90;99.90;;;;;;5071591;28;20103;-65
2024/01/31 05:09:21;;;;;;;8.93;8.00;;;7.90;99.90;;;;;;5071977;28;20074;-65
2024/01/31 05:11:50;;;;;;;9.60;8.50;;;7.70;99.90;;;;;;5071658;28;20033;-64
2024/01/31 05:14:16;;;;;;;13.25;9.13;;;7.40;99.90;;;;;;5071546;28;20048;-65
2024/01/31 05:16:42;;;;;;;13.15;9.30;;;7.30;99.90;;;;;;5071218;28;20039;-65
2024/01/31 05:19:11;;;;;;;14.98;9.27;;;7.20;99.90;;;;;;5072221;28;20021;-64
2024/01/31 05:21:47;;;;;;;13.75;8.98;;;7.10;99.90;;;;;;5052267;28;20545;-65
2024/01/31 05:24:16;;;;;;;14.30;9.15;;;7.10;99.90;;;;;;5051427;28;20032;-65
2024/01/31 05:26:47;;;;;;;12.38;9.35;;;7.00;99.90;;;;;;5051437;28;20025;-65
2024/01/31 05:29:14;;;;;;;13.43;9.50;;;6.90;99.90;;;;;;5051247;28;20021;-64
2024/01/31 05:31:39;;;;;;;10.93;8.73;;;6.80;99.90;;;;;;5070852;28;20115;-65
2024/01/31 05:34:05;;;;;;;9.65;8.65;;;6.80;99.90;;;;;;5071152;28;20107;-65
2024/01/31 05:36:31;;;;;;;14.05;9.48;;;6.80;99.90;;;;;;5071040;28;20039;-65
2024/01/31 05:38:57;;;;;;;10.73;9.25;;;6.80;99.90;;;;;;5071573;28;20511;-65
2024/01/31 05:41:22;;;;;;;12.77;9.32;;;6.80;99.90;;;;;;5071110;28;20086;-65
2024/01/31 05:43:48;;;;;;;14.10;9.52;;;6.80;99.90;;;;;;5071259;28;20029;-65
2024/01/31 05:46:17;;;;;;;13.15;9.77;;;6.70;99.90;;;;;;5070850;28;20074;-65
2024/01/31 05:48:45;;;;;;;12.20;9.25;;;6.60;99.90;;;;;;5071145;28;20031;-65
2024/01/31 05:51:11;;;;;;;11.70;9.40;;;6.70;99.90;;;;;;5074804;28;20040;-65
2024/01/31 05:53:36;;;;;;;12.43;9.93;;;6.60;99.90;;;;;;5075077;28;20441;-64
2024/01/31 05:56:03;;;;;;;12.60;10.00;;;6.60;99.90;;;;;;5074767;28;20044;-65
2024/01/31 05:58:29;;;;;;;13.82;10.95;;;6.70;99.90;;;;;;5074641;28;20020;-65
2024/01/31 06:00:55;;;;;;;16.98;10.50;;;6.60;99.90;;;;;;5061543;28;20083;-65
2024/01/31 06:03:22;;;;;;;18.58;10.18;;;6.60;99.90;;;;;;5054651;28;20021;-65
2024/01/31 06:05:48;;;;;;;15.50;11.85;;;6.50;99.90;;;;;;5054962;28;20044;-65
2024/01/31 06:08:14;;;;;;;13.48;11.82;;;6.50;99.90;;;;;;5054487;28;20029;-65
2024/01/31 06:10:40;;;;;;;15.45;13.38;;;6.40;99.90;;;;;;5056425;28;20060;-65
2024/01/31 06:13:05;;;;;;;18.88;13.52;;;6.40;99.90;;;;;;5074391;28;20029;-65
2024/01/31 06:15:31;;;;;;;16.58;13.52;;;6.40;99.90;;;;;;5074100;28;20105;-65
2024/01/31 06:17:57;;;;;;;18.50;14.63;;;6.40;99.90;;;;;;5074709;28;20027;-64
2024/01/31 06:20:22;;;;;;;18.15;13.68;;;6.40;99.90;;;;;;5065796;28;20407;-65
2024/01/31 06:22:48;;;;;;;16.73;13.00;;;6.40;99.90;;;;;;5054567;28;20021;-65
2024/01/31 06:25:14;;;;;;;16.15;12.55;;;6.40;99.90;;;;;;5054221;28;20052;-65
2024/01/31 06:27:39;;;;;;;19.50;12.52;;;6.40;99.90;;;;;;5054158;28;20036;-65
2024/01/31 06:30:06;;;;;;;16.98;12.75;;;6.30;99.90;;;;;;5059528;28;20508;-64
2024/01/31 06:32:34;;;;;;;19.42;13.88;;;6.30;99.90;;;;;;5065036;28;20159;-65
2024/01/31 06:35:00;;;;;;;22.00;13.55;;;6.30;99.90;;;;;;5054398;28;20017;-65
2024/01/31 06:37:26;;;;;;;19.35;14.40;;;6.30;99.90;;;;;;5073499;28;20530;-65
2024/01/31 06:39:52;;;;;;;19.45;15.07;;;6.20;99.90;;;;;;5073694;28;20068;-65
2024/01/31 06:42:18;;;;;;;24.02;15.90;;;6.20;99.90;;;;;;5073849;28;20032;-64
2024/01/31 06:44:44;;;;;;;21.13;16.23;;;6.20;99.90;;;;;;5073907;28;20017;-65
2024/01/31 06:47:09;;;;;;;21.55;16.30;;;6.30;99.90;;;;;;5074727;28;20050;-65
2024/01/31 06:49:35;;;;;;;19.88;15.25;;;6.40;99.90;;;;;;5090368;28;20030;-65
2024/01/31 06:52:00;;;;;;;16.73;14.07;;;6.50;99.90;;;;;;5063656;28;20032;-65
2024/01/31 06:54:26;;;;;;;16.63;12.65;;;6.70;99.90;;;;;;5071887;28;20415;-65
2024/01/31 06:56:52;;;;;;;14.52;11.38;;;6.80;99.90;;;;;;5063359;28;20029;-65
2024/01/31 06:59:17;;;;;;;12.63;11.00;;;7.00;99.90;;;;;;5053659;28;20029;-66
2024/01/31 07:01:43;;;;;;;13.82;11.02;;;7.00;99.90;;;;;;5071531;28;20028;-65
2024/01/31 07:04:09;;;;;;;14.50;11.00;;;7.10;99.90;;;;;;5073250;28;20028;-65
2024/01/31 07:06:34;;;;;;;14.98;11.10;;;7.00;99.90;;;;;;5073176;28;20039;-66
2024/01/31 07:09:00;;;;;;;18.83;11.10;;;6.80;99.90;;;;;;5073347;28;20029;-66
2024/01/31 07:11:26;;;;;;;15.95;11.57;;;6.60;99.90;;;;;;5073040;28;20047;-66
2024/01/31 07:13:51;;;;;;;17.13;12.68;;;6.50;99.90;;;;;;5072961;28;20016;-65
2024/01/31 07:16:17;;;;;;;16.40;11.88;;;6.30;99.90;;;;;;5072860;28;20442;-65
2024/01/31 07:18:43;;;;;;;14.13;11.18;;;6.30;99.90;;;;;;5073000;28;20016;-65
2024/01/31 07:21:09;;;;;;;17.27;12.07;;;6.20;99.90;;;;;;5060019;28;20037;-66
2024/01/31 07:23:36;;;;;;;20.55;12.70;;;6.20;99.90;;;;;;5051471;28;20412;-66
2024/01/31 07:26:02;;;;;;;17.23;12.85;;;6.20;99.90;;;;;;5052885;28;20442;-66
2024/01/31 07:28:28;;;;;;;15.52;12.00;;;6.20;99.90;;;;;;5052636;28;20483;-66
2024/01/31 07:30:53;;;;;;;20.02;11.43;;;6.10;99.90;;;;;;5063612;28;20039;-66
2024/01/31 07:33:20;;;;;;;16.02;11.48;;;6.10;99.90;;;;;;5072803;28;20111;-66
2024/01/31 07:35:45;;;;;;;17.30;11.48;;;6.00;99.90;;;;;;5072557;28;20021;-65
2024/01/31 07:38:11;;;;;;;14.50;11.55;;;6.00;99.90;;;;;;5072592;28;20024;-64
2024/01/31 07:40:38;;;;;;;22.05;12.32;;;6.00;99.90;;;;;;5072387;28;20041;-65
2024/01/31 07:43:04;;;;;;;16.90;11.68;;;5.90;99.90;;;;;;5072133;28;20051;-65
2024/01/31 07:45:29;;;;;;;18.27;11.85;;;6.00;99.90;;;;;;5072890;28;20060;-66
2024/01/31 07:47:56;;;;;;;20.90;12.70;;;6.00;99.90;;;;;;5072532;28;20024;-65
2024/01/31 07:50:23;;;;;;;19.98;13.05;;;6.10;99.90;;;;;;5072251;28;20490;-65
2024/01/31 07:52:49;;;;;;;20.65;13.43;;;6.00;99.90;;;;;;5072305;28;20036;-65
2024/01/31 07:55:14;;;;;;;19.88;14.27;;;6.00;99.90;;;;;;5072306;28;20032;-64
2024/01/31 07:57:40;;;;;;;25.60;17.77;;;6.10;99.90;;;;;;5072353;28;20494;-65
2024/01/31 08:00:06;;;;;;;32.88;19.00;;;5.90;99.90;;;;;;5072470;28;20395;-65
2024/01/31 08:02:32;;;;;;;28.45;20.08;;;6.00;99.90;;;;;;5072771;28;20124;-65
2024/01/31 08:04:58;;;;;;;27.80;20.02;;;6.10;99.90;;;;;;5072323;28;20406;-65
2024/01/31 08:07:24;;;;;;;26.95;18.60;;;6.00;99.90;;;;;;5072113;28;20020;-65
2024/01/31 08:09:50;;;;;;;27.08;18.60;;;6.00;99.90;;;;;;5070376;28;20099;-66
2024/01/31 08:12:17;;;;;;;23.17;18.30;;;6.10;99.90;;;;;;5051651;28;20503;-64
2024/01/31 08:14:42;;;;;;;26.58;17.58;;;6.00;99.90;;;;;;5052198;28;20053;-65
2024/01/31 08:17:08;;;;;;;22.23;18.30;;;6.10;99.90;;;;;;5052156;28;20110;-65
2024/01/31 08:19:35;;;;;;;23.15;17.02;;;6.10;99.90;;;;;;5052105;28;20020;-65
2024/01/31 08:22:01;;;;;;;26.98;16.83;;;6.10;99.90;;;;;;5071980;28;20162;-65
2024/01/31 08:24:26;;;;;;;29.20;17.63;;;6.10;99.90;;;;;;5072239;28;20482;-65
2024/01/31 08:26:52;;;;;;;27.02;17.55;;;6.10;99.90;;;;;;5071901;28;20028;-65
2024/01/31 08:29:18;;;;;;;28.73;18.67;;;6.20;99.90;;;;;;5072013;28;20074;-66
2024/01/31 08:31:43;;;;;;;27.45;18.30;;;6.40;99.90;;;;;;5054708;28;20098;-65
2024/01/31 08:34:10;;;;;;;23.02;17.17;;;6.40;99.90;;;;;;5051963;28;20055;-65
2024/01/31 08:36:36;;;;;;;21.85;15.48;;;6.40;99.90;;;;;;5064497;28;20009;-65
2024/01/31 08:39:03;;;;;;;23.15;15.63;;;6.50;99.90;;;;;;5071816;28;20052;-65
2024/01/31 08:41:31;;;;;;;20.00;15.13;;;6.40;99.90;;;;;;5071892;28;20098;-65
2024/01/31 08:43:57;;;;;;;20.30;14.82;;;6.50;99.90;;;;;;5070124;28;20039;-65
2024/01/31 08:46:26;;;;;;;19.15;15.30;;;6.60;99.90;;;;;;5072391;28;20052;-65
2024/01/31 08:48:51;;;;;;;23.77;15.63;;;6.90;99.90;;;;;;5083682;28;20371;-65
2024/01/31 08:51:18;;;;;;;19.73;16.85;;;7.10;99.90;;;;;;5078482;28;20059;-64
2024/01/31 08:53:44;;;;;;;21.13;16.38;;;7.40;99.90;;;;;;5071858;28;20016;-65
2024/01/31 08:56:10;;;;;;;16.65;14.80;;;7.50;99.90;;;;;;5055782;28;20025;-65
2024/01/31 08:58:36;;;;;;;18.00;14.43;;;7.60;99.90;;;;;;5051820;28;20013;-64
2024/01/31 09:01:03;;;;;;;17.30;13.88;;;7.80;99.90;;;;;;5062722;28;20446;-66
2024/01/31 09:03:28;;;;;;;17.70;13.55;;;7.90;99.90;;;;;;5071863;28;20027;-65
2024/01/31 09:05:54;;;;;;;15.18;12.55;;;8.00;99.90;;;;;;5071490;28;20024;-66
2024/01/31 09:08:20;;;;;;;13.85;12.30;;;7.90;99.90;;;;;;5071417;28;20029;-65
2024/01/31 09:10:46;;;;;;;11.85;10.20;;;7.80;99.90;;;;;;5063254;28;20025;-66
2024/01/31 09:13:12;;;;;;;12.80;9.80;;;7.80;99.90;;;;;;5051626;28;20048;-66
2024/01/31 09:15:37;;;;;;;12.45;9.27;;;7.80;99.90;;;;;;5051607;28;20403;-66
2024/01/31 09:18:05;;;;;;;12.45;8.63;;;7.80;99.90;;;;;;5051305;28;20029;-66
2024/01/31 09:20:31;;;;;;;11.85;8.90;;;7.80;99.90;;;;;;5059177;28;20099;-65
2024/01/31 09:22:57;;;;;;;10.77;8.07;;;7.90;99.90;;;;;;5071654;28;20119;-65
2024/01/31 09:25:23;;;;;;;9.48;8.10;;;8.00;99.90;;;;;;5075341;28;20436;-64
2024/01/31 09:27:49;;;;;;;10.07;7.78;;;8.10;99.90;;;;;;5075353;28;20085;-65
2024/01/31 09:30:15;;;;;;;9.38;7.63;;;8.10;99.90;;;;;;5073787;28;20394;-65
2024/01/31 09:32:40;;;;;;;13.77;7.85;;;8.20;99.90;;;;;;5075080;28;20032;-64
2024/01/31 09:35:06;;;;;;;10.90;7.90;;;8.20;99.90;;;;;;5063060;28;20033;-64
2024/01/31 09:37:32;;;;;;;9.65;8.18;;;8.30;99.90;;;;;;5075028;28;20029;-64
2024/01/31 09:39:59;;;;;;;10.23;8.20;;;8.40;99.90;;;;;;5075119;28;20060;-65
2024/01/31 09:42:26;;;;;;;9.68;8.30;;;8.40;99.90;;;;;;5074855;28;20040;-65
2024/01/31 09:44:55;;;;;;;13.75;9.02;;;8.50;99.90;;;;;;5074946;28;20020;-65
2024/01/31 09:47:26;;;;;;;9.68;8.23;;;8.50;99.90;;;;;;5075172;28;20037;-65
2024/01/31 09:49:52;;;;;;;10.82;8.23;;;8.60;99.90;;;;;;5074448;28;20021;-64
2024/01/31 09:52:27;;;;;;;10.90;8.82;;;8.70;99.90;;;;;;5074941;28;20028;-64
2024/01/31 09:54:56;;;;;;;13.30;9.80;;;8.70;99.90;;;;;;5074783;28;20099;-64
2024/01/31 09:57:22;;;;;;;12.93;10.02;;;8.80;99.90;;;;;;5074721;28;20028;-64
2024/01/31 09:59:50;;;;;;;14.95;10.32;;;8.90;99.90;;;;;;5074775;28;20021;-64
2024/01/31 10:02:16;;;;;;;12.07;9.60;;;8.90;99.90;;;;;;5056997;28;20039;-64
2024/01/31 10:04:46;;;;;;;16.80;10.25;;;9.00;99.90;;;;;;5074726;28;20486;-64
2024/01/31 10:07:12;;;;;;;11.20;9.93;;;9.00;99.90;;;;;;5074171;28;20024;-64
2024/01/31 10:09:38;;;;;;;14.07;9.25;;;9.10;99.90;;;;;;5074735;28;20028;-65
2024/01/31 10:12:04;;;;;;;13.18;9.65;;;9.20;99.90;;;;;;5074411;28;20025;-64
2024/01/31 10:14:30;;;;;;;14.02;9.98;;;9.30;99.90;;;;;;5074819;28;20070;-65
2024/01/31 10:16:55;;;;;;;12.95;9.35;;;9.40;99.90;;;;;;5074597;28;20025;-64
2024/01/31 10:19:21;;;;;;;12.60;8.75;;;9.40;99.90;;;;;;5074364;28;20512;-64
2024/01/31 10:21:47;;;;;;;11.15;8.68;;;9.50;99.90;;;;;;5058100;28;20025;-64
2024/01/31 10:24:15;;;;;;;11.77;8.73;;;9.60;99.90;;;;;;5054852;28;20021;-64
2024/01/31 10:26:41;;;;;;;10.27;8.40;;;9.60;99.90;;;;;;5054335;28;20029;-64
2024/01/31 10:29:07;;;;;;;11.68;8.25;;;9.70;99.90;;;;;;5054362;28;20031;-64
2024/01/31 10:31:34;;;;;;;12.25;8.48;;;9.80;99.90;;;;;;5067893;28;20380;-64
2024/01/31 10:34:01;;;;;;;12.68;8.43;;;9.80;99.90;;;;;;5074381;28;20029;-64
2024/01/31 10:36:28;;;;;;;11.13;8.20;;;10.00;99.90;;;;;;5063737;28;20112;-64
2024/01/31 10:38:54;;;;;;;14.73;8.77;;;10.20;99.90;;;;;;5053901;28;20542;-64
2024/01/31 10:41:21;;;;;;;10.85;7.63;;;10.40;99.90;;;;;;5066349;28;20060;-64
2024/01/31 10:43:50;;;;;;;12.40;8.20;;;10.60;99.90;;;;;;5073955;28;20025;-63
2024/01/31 10:46:16;;;;;;;10.68;8.07;;;10.80;99.90;;;;;;5066998;28;20064;-64
2024/01/31 10:48:42;;;;;;;9.43;7.57;;;10.90;99.90;;;;;;5070573;28;20420;-64
2024/01/31 10:51:09;;;;;;;13.80;8.38;;;11.00;99.90;;;;;;5073332;28;20040;-64
2024/01/31 10:53:36;;;;;;;10.77;7.72;;;11.20;99.90;;;;;;5073706;28;20425;-64
2024/01/31 10:56:03;;;;;;;11.45;7.82;;;11.30;99.90;;;;;;5088614;28;20031;-64
2024/01/31 10:58:29;;;;;;;13.95;8.13;;;11.20;99.90;;;;;;5077317;28;20025;-64
2024/01/31 11:00:55;;;;;;;10.02;7.75;;;11.10;99.90;;;;;;5068948;28;20079;-64
2024/01/31 11:03:23;;;;;;;11.50;7.63;;;11.10;99.90;;;;;;5073284;28;20397;-64
2024/01/31 11:05:51;;;;;;;9.95;8.48;;;11.10;99.90;;;;;;5073223;28;20036;-65
2024/01/31 11:08:20;;;;;;;11.30;8.65;;;11.10;99.90;;;;;;5073164;28;20059;-64
2024/01/31 11:10:47;;;;;;;14.90;10.27;;;11.10;99.90;;;;;;5073082;28;20458;-64
2024/01/31 11:13:13;;;;;;;27.00;21.42;;;11.20;99.90;;;;;;5073445;28;20108;-64
2024/01/31 11:15:40;;;;;;;26.77;18.75;;;11.30;99.90;;;;;;5072079;28;20036;-66
2024/01/31 11:18:10;;;;;;;32.65;23.02;;;11.30;99.90;;;;;;5072829;28;20020;-65
2024/01/31 11:20:49;;;;;;;20.05;14.80;;;11.40;99.90;;;;;;5067669;28;20017;-64
2024/01/31 11:23:23;;;;;;;21.67;13.90;;;11.50;99.90;;;;;;5053170;28;20044;-64
2024/01/31 11:25:50;;;;;;;;;;;11.50;99.90;;;;;;5053679;28;20110;-65
2024/01/31 11:28:17;;;;;;;15.75;10.98;;;11.60;99.90;;;;;;5053563;28;19905;-65
2024/01/31 11:30:43;;;;;;;14.02;9.85;;;11.70;99.90;;;;;;5058856;28;20019;-64
2024/01/31 11:33:09;;;;;;;14.75;9.77;;;11.90;99.90;;;;;;5072635;28;20093;-65
2024/01/31 11:35:35;;;;;;;16.50;10.10;;;11.90;99.90;;;;;;5073361;28;20107;-64
2024/01/31 11:38:02;;;;;;;15.93;9.48;;;11.90;99.90;;;;;;5072791;28;20028;-64
2024/01/31 11:40:27;;;;;;;17.23;9.80;;;12.00;99.90;;;;;;5072629;28;20063;-64
2024/01/31 11:42:56;;;;;;;11.90;7.97;;;12.10;99.90;;;;;;5072678;28;20410;-64
2024/01/31 11:45:22;;;;;;;15.48;8.68;;;12.20;99.90;;;;;;5072661;28;20060;-64
2024/01/31 11:47:50;;;;;;;9.90;7.80;;;12.30;99.90;;;;;;5071395;28;20021;-64
2024/01/31 11:50:15;;;;;;;12.23;7.78;;;12.40;99.90;;;;;;5072917;28;20399;-64
2024/01/31 11:52:42;;;;;;;12.38;7.32;;;12.40;99.90;;;;;;5071664;28;20021;-64
2024/01/31 11:55:11;;;;;;;12.95;7.80;;;12.60;99.90;;;;;;5072076;28;20052;-63
2024/01/31 11:57:40;;;;;;;10.07;6.75;;;12.70;99.90;;;;;;5063291;28;20155;-63
2024/01/31 12:00:06;;;;;;;10.38;6.95;;;12.80;99.90;;;;;;5052757;28;20020;-63
2024/01/31 12:02:32;;;;;;;11.10;6.88;;;12.80;99.90;;;;;;5072227;28;20106;-63
2024/01/31 12:04:58;;;;;;;15.07;7.50;;;12.90;99.90;;;;;;5049813;28;20039;-64
2024/01/31 12:07:24;;;;;;;9.05;6.47;;;13.00;99.90;;;;;;5060585;28;20024;-64
2024/01/31 12:09:50;;;;;;;11.70;7.38;;;13.00;99.90;;;;;;5072016;28;20036;-66
2024/01/31 12:12:15;;;;;;;10.43;7.70;;;13.10;99.90;;;;;;5072423;28;20036;-66
2024/01/31 12:14:41;;;;;;;11.15;7.22;;;13.20;99.90;;;;;;5071981;28;20024;-68
2024/01/31 12:17:24;;;;;;;10.90;6.80;;;13.30;99.90;;;;;;5072022;28;20033;-65
2024/01/31 12:20:01;;;;;;;10.93;6.07;;;13.50;99.90;;;;;;5072038;28;20032;-64
2024/01/31 12:22:26;;;;;;;11.13;6.38;;;13.60;99.90;;;;;;5072576;28;20021;-64
2024/01/31 12:24:52;;;;;;;11.63;6.07;;;13.80;99.90;;;;;;5072059;28;20040;-64
2024/01/31 12:27:18;;;;;;;10.88;5.90;;;13.90;99.90;;;;;;5071790;28;20021;-65
2024/01/31 12:29:46;;;;;;;10.75;6.43;;;14.30;99.90;;;;;;5072026;28;20036;-64
2024/01/31 12:32:12;;;;;;;13.80;9.65;;;14.60;99.90;;;;;;5054192;28;20044;-64
2024/01/31 12:34:37;;;;;;;13.77;9.52;;;14.70;99.90;;;;;;5068382;28;20024;-63
2024/01/31 12:37:03;;;;;;;14.75;9.35;;;14.70;99.90;;;;;;5055424;28;20116;-63